| time (UTC) | temp C | wind direction | speed KPH | gust KPH | rain 1hr cm | rain 24hr cm | rain mn cm | humidity % | barometer mb |
| 20260502224528 | 22 | 45 | 8.0 | 14.5 | 0.00 | 0.00 | 0.00 | 37 | 1021.0 |
| 20260502223517 | 21 | 10 | 8.0 | 14.5 | 0.00 | 0.00 | 0.00 | 37 | 1021.0 |
| 20260502222523 | 21 | 79 | 8.0 | 16.1 | 0.00 | 0.00 | 0.00 | 38 | 1021.6 |
| 20260502221529 | 22 | 47 | 9.7 | 17.7 | 0.00 | 0.00 | 0.00 | 38 | 1021.6 |
| 20260502220517 | 22 | 13 | 6.4 | 14.5 | 0.00 | 0.00 | 0.00 | 39 | 1021.8 |
| 20260502215523 | 21 | 57 | 8.0 | 14.5 | 0.00 | 0.00 | 0.00 | 39 | 1021.7 |
| 20260502214548 | 21 | 84 | 9.7 | 12.9 | 0.00 | 0.00 | 0.00 | 39 | 1022.3 |
| 20260502213516 | 21 | 39 | 6.4 | 16.1 | 0.00 | 0.00 | 0.00 | 40 | 1022.2 |
| 20260502212522 | 21 | 52 | 9.7 | 19.3 | 0.00 | 0.00 | 0.00 | 39 | 1022.5 |
| 20260502211528 | 22 | 23 | 8.0 | 14.5 | 0.00 | 0.00 | 0.00 | 38 | 1022.7 |
| 20260502210516 | 21 | 20 | 4.8 | 11.3 | 0.00 | 0.00 | 0.00 | 40 | 1022.9 |
| 20260502205522 | 21 | 35 | 4.8 | 14.5 | 0.00 | 0.00 | 0.00 | 41 | 1023.2 |
| 20260502204528 | 20 | 4 | 8.0 | 9.7 | 0.00 | 0.00 | 0.00 | 41 | 1023.0 |
| 20260502203535 | 20 | 23 | 9.7 | 9.7 | 0.00 | 0.00 | 0.00 | 42 | 1022.9 |
| 20260502202522 | 19 | 31 | 8.0 | 16.1 | 0.00 | 0.00 | 0.00 | 43 | 1023.2 |
| 20260502201527 | 19 | 2 | 8.0 | 12.9 | 0.00 | 0.00 | 0.00 | 42 | 1023.3 |
| 20260502200516 | 20 | 15 | 6.4 | 11.3 | 0.00 | 0.00 | 0.00 | 42 | 1023.4 |
| 20260502195523 | 19 | 36 | 6.4 | 11.3 | 0.00 | 0.00 | 0.00 | 42 | 1023.2 |
| 20260502194527 | 20 | 24 | 8.0 | 14.5 | 0.00 | 0.00 | 0.00 | 42 | 1023.3 |
| 20260502193553 | 20 | 101 | 6.4 | 9.7 | 0.00 | 0.00 | 0.00 | 41 | 1023.9 |
| 20260502192522 | 20 | 58 | 4.8 | 12.9 | 0.00 | 0.00 | 0.00 | 40 | 1023.9 |
| 20260502191547 | 20 | 58 | 6.4 | 16.1 | 0.00 | 0.00 | 0.00 | 41 | 1023.9 |
| 20260502190551 | 20 | 103 | 8.0 | 11.3 | 0.00 | 0.00 | 0.00 | 40 | 1024.0 |
| 20260502185542 | 20 | 89 | 6.4 | 9.7 | 0.00 | 0.00 | 0.00 | 40 | 1024.2 |
| 20260502184545 | 20 | 55 | 6.4 | 12.9 | 0.00 | 0.00 | 0.00 | 40 | 1024.3 |
| 20260502183552 | 19 | 291 | 3.2 | 9.7 | 0.00 | 0.00 | 0.00 | 41 | 1024.6 |
| 20260502182522 | 19 | 84 | 6.4 | 12.9 | 0.00 | 0.00 | 0.00 | 43 | 1024.5 |
| 20260502181546 | 19 | 88 | 8.0 | 11.3 | 0.00 | 0.00 | 0.00 | 43 | 1024.7 |
| 20260502180531 | 18 | 358 | 6.4 | 11.3 | 0.00 | 0.00 | 0.00 | 44 | 1024.8 |
| 20260502163531 | 16 | 66 | 3.2 | 6.4 | 0.00 | 0.00 | 0.00 | 48 | 1025.5 |
| 20260502162537 | 16 | 346 | 4.8 | 8.0 | 0.00 | 0.00 | 0.00 | 47 | 1025.4 |
| 20260502161525 | 16 | 4 | 3.2 | 6.4 | 0.00 | 0.00 | 0.00 | 47 | 1025.5 |
| 20260502160531 | 16 | 122 | 1.6 | 4.8 | 0.00 | 0.00 | 0.00 | 47 | 1025.8 |
| 20260502151525 | 14 | 110 | 3.2 | 4.8 | 0.00 | 0.00 | 0.00 | 47 | 1026.1 |
| 20260502150551 | 13 | 240 | 3.2 | 4.8 | 0.00 | 0.00 | 0.00 | 49 | 1025.9 |
| 20260502130530 | 3 | 256 | 6.4 | 6.4 | 0.00 | 0.00 | 0.00 | 77 | 1024.4 |
| 20260502123529 | 2 | 0.0 | 0.0 | 0.00 | 0.00 | 0.00 | 80 | 1023.9 | |
| 20260502122517 | 2 | 248 | 0.0 | 3.2 | 0.00 | 0.00 | 0.00 | 80 | 1024.0 |
| 20260502121524 | 2 | 252 | 3.2 | 8.0 | 0.00 | 0.00 | 0.00 | 80 | 1024.2 |
| 20260502120530 | 2 | 225 | 0.0 | 1.6 | 0.00 | 0.00 | 0.00 | 80 | 1024.1 |
| 20260502115518 | 2 | 239 | 0.0 | 3.2 | 0.00 | 0.00 | 0.00 | 79 | 1024.3 |
| 20260502114523 | 2 | 0.0 | 1.6 | 0.00 | 0.00 | 0.00 | 79 | 1024.0 | |
| 20260502113549 | 2 | 250 | 3.2 | 3.2 | 0.00 | 0.00 | 0.00 | 79 | 1024.3 |
| 20260502112517 | 2 | 236 | 3.2 | 4.8 | 0.00 | 0.00 | 0.00 | 78 | 1024.0 |
| 20260502111524 | 2 | 0.0 | 0.0 | 0.00 | 0.00 | 0.00 | 76 | 1024.0 | |
| 20260502110530 | 3 | 0.0 | 0.0 | 0.00 | 0.00 | 0.00 | 73 | 1024.2 | |
| 20260502105518 | 3 | 127 | 1.6 | 4.8 | 0.00 | 0.00 | 0.00 | 73 | 1024.1 |
| 20260502104523 | 3 | 117 | 1.6 | 3.2 | 0.00 | 0.00 | 0.00 | 71 | 1023.9 |
| 20260502103530 | 4 | 156 | 1.6 | 4.8 | 0.00 | 0.00 | 0.00 | 69 | 1024.2 |
| 20260502102517 | 5 | 213 | 4.8 | 6.4 | 0.00 | 0.00 | 0.00 | 67 | 1024.0 |
| 20260502101523 | 5 | 240 | 6.4 | 8.0 | 0.00 | 0.00 | 0.00 | 67 | 1024.1 |
| 20260502100529 | 5 | 229 | 6.4 | 9.7 | 0.00 | 0.00 | 0.00 | 65 | 1024.0 |
| 20260502091522 | 6 | 249 | 6.4 | 8.0 | 0.00 | 0.00 | 0.00 | 62 | 1023.9 |
| 20260502090548 | 6 | 247 | 9.7 | 11.3 | 0.00 | 0.00 | 0.00 | 60 | 1024.1 |
| 20260502071522 | 8 | 228 | 9.7 | 11.3 | 0.00 | 0.00 | 0.00 | 57 | 1023.3 |
| 20260502070528 | 8 | 231 | 8.0 | 9.7 | 0.00 | 0.00 | 0.00 | 57 | 1023.3 |
| 20260502065516 | 8 | 227 | 6.4 | 8.0 | 0.00 | 0.00 | 0.00 | 57 | 1023.3 |
| 20260502064522 | 8 | 194 | 3.2 | 4.8 | 0.00 | 0.00 | 0.00 | 56 | 1023.0 |
| 20260502063527 | 8 | 222 | 4.8 | 11.3 | 0.00 | 0.00 | 0.00 | 55 | 1023.1 |
| 20260502062515 | 8 | 248 | 9.7 | 11.3 | 0.00 | 0.00 | 0.00 | 57 | 1022.5 |
| 20260502060527 | 8 | 253 | 4.8 | 11.3 | 0.00 | 0.00 | 0.00 | 56 | 1022.4 |
| 20260502055532 | 9 | 265 | 8.0 | 11.3 | 0.00 | 0.00 | 0.00 | 55 | 1022.5 |
| 20260502054538 | 9 | 237 | 9.7 | 16.1 | 0.00 | 0.00 | 0.00 | 55 | 1022.4 |
| 20260502053544 | 9 | 249 | 11.3 | 14.5 | 0.00 | 0.00 | 0.00 | 55 | 1022.4 |
| 20260502052531 | 10 | 248 | 9.7 | 14.5 | 0.00 | 0.00 | 0.00 | 54 | 1022.3 |
| 20260502051650 | 10 | 240 | 11.3 | 14.5 | 0.00 | 0.00 | 0.00 | 53 | 1022.4 |
| 20260502050545 | 11 | 260 | 9.7 | 12.9 | 0.00 | 0.00 | 0.00 | 52 | 1022.3 |
| 20260502045531 | 10 | 253 | 12.9 | 14.5 | 0.00 | 0.00 | 0.00 | 53 | 1022.2 |
| 20260502044557 | 11 | 267 | 12.9 | 17.7 | 0.00 | 0.00 | 0.00 | 53 | 1022.0 |
| 20260502043525 | 11 | 257 | 9.7 | 12.9 | 0.00 | 0.00 | 0.00 | 51 | 1022.2 |
| 20260502042531 | 11 | 260 | 11.3 | 12.9 | 0.00 | 0.00 | 0.00 | 52 | 1021.9 |
| 20260502041521 | 11 | 265 | 11.3 | 12.9 | 0.00 | 0.00 | 0.00 | 51 | 1021.9 |
| 20260502040524 | 12 | 261 | 11.3 | 16.1 | 0.00 | 0.00 | 0.00 | 50 | 1021.6 |
| 20260502035530 | 12 | 249 | 11.3 | 16.1 | 0.00 | 0.00 | 0.00 | 50 | 1021.6 |
| 20260502034536 | 12 | 270 | 9.7 | 12.9 | 0.00 | 0.00 | 0.00 | 48 | 1021.3 |
| 20260502033544 | 13 | 268 | 8.0 | 9.7 | 0.00 | 0.00 | 0.00 | 47 | 1021.2 |
| 20260502032530 | 13 | 238 | 8.0 | 9.7 | 0.00 | 0.00 | 0.00 | 47 | 1021.2 |
| 20260502031518 | 13 | 264 | 8.0 | 9.7 | 0.00 | 0.00 | 0.00 | 46 | 1021.2 |
| 20260502030524 | 14 | 241 | 4.8 | 6.4 | 0.00 | 0.00 | 0.00 | 44 | 1020.9 |
| 20260502025529 | 15 | 244 | 3.2 | 4.8 | 0.00 | 0.00 | 0.00 | 44 | 1020.9 |
| 20260502024517 | 17 | 275 | 3.2 | 4.8 | 0.00 | 0.00 | 0.00 | 39 | 1021.1 |
| 20260502023523 | 18 | 225 | 3.2 | 4.8 | 0.00 | 0.00 | 0.00 | 36 | 1021.2 |
| 20260502022529 | 18 | 156 | 4.8 | 8.0 | 0.00 | 0.00 | 0.00 | 32 | 1020.8 |
| 20260502021517 | 18 | 137 | 0.0 | 6.4 | 0.00 | 0.00 | 0.00 | 34 | 1020.8 |
| 20260502020527 | 19 | 107 | 4.8 | 6.4 | 0.00 | 0.00 | 0.00 | 34 | 1020.8 |
| 20260502015529 | 20 | 113 | 4.8 | 4.8 | 0.00 | 0.00 | 0.00 | 31 | 1020.7 |
| 20260502014518 | 21 | 71 | 1.6 | 4.8 | 0.00 | 0.00 | 0.00 | 30 | 1020.9 |
| 20260502013523 | 21 | 100 | 3.2 | 4.8 | 0.00 | 0.00 | 0.00 | 29 | 1020.4 |
| 20260502012529 | 21 | 87 | 1.6 | 8.0 | 0.00 | 0.00 | 0.00 | 28 | 1020.3 |
| 20260502011537 | 21 | 40 | 3.2 | 14.5 | 0.00 | 0.00 | 0.00 | 28 | 1020.2 |
| 20260502010523 | 21 | 89 | 4.8 | 9.7 | 0.00 | 0.00 | 0.00 | 30 | 1020.4 |
| 20260502005529 | 22 | 103 | 4.8 | 8.0 | 0.00 | 0.00 | 0.00 | 29 | 1020.4 |
| 20260502004516 | 22 | 96 | 9.7 | 12.9 | 0.00 | 0.00 | 0.00 | 28 | 1020.1 |
| 20260502003542 | 23 | 69 | 4.8 | 9.7 | 0.00 | 0.00 | 0.00 | 28 | 1020.1 |
| 20260502002528 | 23 | 82 | 3.2 | 6.4 | 0.00 | 0.00 | 0.00 | 27 | 1020.1 |
| 20260502001516 | 23 | 75 | 4.8 | 6.4 | 0.00 | 0.00 | 0.00 | 28 | 1020.4 |
| 20260502000522 | 24 | 310 | 8.0 | 11.3 | 0.00 | 0.00 | 0.00 | 25 | 1020.6 |
| 20260501235528 | 24 | 8 | 6.4 | 9.7 | 0.00 | 0.00 | 0.00 | 24 | 1020.5 |
| 20260501234516 | 24 | 346 | 4.8 | 19.3 | 0.00 | 0.00 | 0.00 | 23 | 1020.9 |
| 20260501233521 | 25 | 257 | 8.0 | 11.3 | 0.00 | 0.00 | 0.00 | 23 | 1020.9 |
| 20260501232528 | 24 | 327 | 3.2 | 17.7 | 0.00 | 0.00 | 0.00 | 22 | 1020.9 |
| 20260501231515 | 24 | 274 | 6.4 | 9.7 | 0.00 | 0.00 | 0.00 | 22 | 1021.0 |
| 20260501230541 | 25 | 274 | 8.0 | 14.5 | 0.00 | 0.00 | 0.00 | 22 | 1021.1 |
| 20260501225527 | 23 | 293 | 4.8 | 22.5 | 0.00 | 0.00 | 0.00 | 21 | 1021.2 |